createdAt,value
2023-03-05T00:01:34.918Z,98648.60
2023-03-05T00:04:05.861Z,98641.60
2023-03-05T00:06:34.229Z,98636.80
2023-03-05T00:09:02.391Z,98635.00
2023-03-05T00:11:31.884Z,98633.60
2023-03-05T00:14:04.125Z,98638.40
2023-03-05T00:16:32.355Z,98641.20
2023-03-05T00:19:01.617Z,98643.40
2023-03-05T00:21:34.572Z,98646.80
2023-03-05T00:24:06.199Z,98643.40
2023-03-05T00:26:37.521Z,98644.20
2023-03-05T00:29:07.711Z,98636.20
2023-03-05T00:31:36.820Z,98635.00
2023-03-05T00:34:13.003Z,98631.40
2023-03-05T00:36:43.940Z,98635.00
2023-03-05T00:39:13.672Z,98626.20
2023-03-05T00:41:41.418Z,98624.80
2023-03-05T00:44:09.598Z,98625.40
2023-03-05T00:46:38.618Z,98619.00
2023-03-05T00:49:07.267Z,98614.60
2023-03-05T00:51:35.033Z,98605.80
2023-03-05T00:54:03.868Z,98602.80
2023-03-05T00:56:31.556Z,98601.80
2023-03-05T00:58:59.559Z,98602.40
2023-03-05T01:01:28.375Z,98600.80
2023-03-05T01:04:01.132Z,98589.20
2023-03-05T01:06:29.593Z,98592.60
2023-03-05T01:08:57.688Z,98592.80
2023-03-05T01:11:25.625Z,98588.20
2023-03-05T01:13:53.327Z,98589.80
2023-03-05T01:16:21.161Z,98588.40
2023-03-05T01:18:48.881Z,98586.40
2023-03-05T01:21:16.565Z,98581.00
2023-03-05T01:23:44.287Z,98589.80
2023-03-05T01:26:11.954Z,98588.40
2023-03-05T01:28:40.473Z,98583.00
2023-03-05T01:31:10.704Z,98579.40
2023-03-05T01:33:39.201Z,98582.40
2023-03-05T01:36:16.932Z,98583.20
2023-03-05T01:38:47.521Z,98582.60
2023-03-05T01:41:16.615Z,98573.00
2023-03-05T01:43:47.461Z,98574.60
2023-03-05T01:46:37.361Z,98566.80
2023-03-05T01:49:21.486Z,98567.80
2023-03-05T01:52:01.466Z,98565.60
2023-03-05T01:54:58.173Z,98560.40
2023-03-05T01:57:39.522Z,98561.40
2023-03-05T02:00:16.762Z,98568.40
2023-03-05T02:02:48.890Z,98557.00
2023-03-05T02:05:41.220Z,98558.20
2023-03-05T02:08:13.820Z,98561.00
2023-03-05T02:10:47.923Z,98561.00
2023-03-05T02:13:22.654Z,98562.80
2023-03-05T02:15:51.926Z,98562.00
2023-03-05T02:18:21.404Z,98552.20
2023-03-05T02:20:56.599Z,98541.80
2023-03-05T02:23:29.345Z,98542.00
2023-03-05T02:25:57.281Z,98548.60
2023-03-05T02:28:33.313Z,98541.20
2023-03-05T02:31:01.276Z,98542.40
2023-03-05T02:33:29.120Z,98547.20
2023-03-05T02:35:56.800Z,98538.40
2023-03-05T02:38:24.513Z,98542.00
2023-03-05T02:40:52.110Z,98542.40
2023-03-05T02:43:20.116Z,98535.00
2023-03-05T02:45:48.004Z,98530.00
2023-03-05T02:48:15.787Z,98526.00
2023-03-05T02:50:44.980Z,98521.60
2023-03-05T02:53:12.709Z,98521.60
2023-03-05T02:55:40.397Z,98523.80
2023-03-05T02:58:08.164Z,98520.20
2023-03-05T03:00:35.926Z,98513.20
2023-03-05T03:03:03.966Z,98516.80
2023-03-05T03:05:31.822Z,98529.00
2023-03-05T03:07:59.528Z,98529.00
2023-03-05T03:10:27.306Z,98522.60
2023-03-05T03:12:55.065Z,98524.40
2023-03-05T03:15:23.110Z,98520.00
2023-03-05T03:17:50.902Z,98517.00
2023-03-05T03:20:20.578Z,98517.60
2023-03-05T03:22:48.487Z,98505.80
2023-03-05T03:25:21.758Z,98512.00
2023-03-05T03:27:50.034Z,98510.20
2023-03-05T03:30:18.121Z,98506.20
2023-03-05T03:32:47.813Z,98493.80
2023-03-05T03:35:15.514Z,98488.20
2023-03-05T03:37:43.297Z,98479.80
2023-03-05T03:40:12.223Z,98492.40
2023-03-05T03:42:40.072Z,98491.80
2023-03-05T03:45:08.734Z,98492.40
2023-03-05T03:47:36.509Z,98486.20
2023-03-05T03:50:05.509Z,98477.00
2023-03-05T03:52:33.269Z,98472.20
2023-03-05T03:55:01.602Z,98482.60
2023-03-05T03:57:31.162Z,98487.20
2023-03-05T03:59:59.923Z,98468.60
2023-03-05T04:02:27.911Z,98478.40
2023-03-05T04:04:55.737Z,98478.40
2023-03-05T04:07:23.679Z,98471.00
2023-03-05T04:09:51.910Z,98477.40
2023-03-05T04:12:19.877Z,98479.80
2023-03-05T04:14:48.991Z,98488.60
2023-03-05T04:17:17.280Z,98488.20
2023-03-05T04:19:45.603Z,98491.00
2023-03-05T04:22:17.108Z,98491.80
2023-03-05T04:24:45.020Z,98486.20
2023-03-05T04:27:12.917Z,98478.60
2023-03-05T04:29:40.654Z,98477.60
2023-03-05T04:32:08.526Z,98480.00
2023-03-05T04:34:38.083Z,98476.00
2023-03-05T04:37:05.967Z,98467.60
2023-03-05T04:39:33.759Z,98468.00
2023-03-05T04:42:01.567Z,98459.00
2023-03-05T04:44:29.431Z,98460.20
2023-03-05T04:46:57.134Z,98458.40
2023-03-05T04:49:24.960Z,98452.00
2023-03-05T04:51:52.682Z,98451.00
2023-03-05T04:54:20.326Z,98456.20
2023-03-05T04:56:48.005Z,98453.20
2023-03-05T04:59:16.127Z,98450.20
2023-03-05T05:01:43.824Z,98446.40
2023-03-05T05:04:11.845Z,98447.80
2023-03-05T05:06:39.578Z,98451.80
2023-03-05T05:09:07.249Z,98451.40
2023-03-05T05:11:34.887Z,98450.40
2023-03-05T05:14:02.621Z,98447.60
2023-03-05T05:16:30.417Z,98446.60
2023-03-05T05:18:58.417Z,98448.40
2023-03-05T05:21:26.153Z,98447.00
2023-03-05T05:23:53.850Z,98441.00
2023-03-05T05:26:21.696Z,98439.60
2023-03-05T05:28:49.489Z,98442.20
2023-03-05T05:31:18.161Z,98446.60
2023-03-05T05:33:49.577Z,98446.20
2023-03-05T05:36:19.391Z,98451.00
2023-03-05T05:38:47.134Z,98453.20
2023-03-05T05:41:17.920Z,98447.80
2023-03-05T05:43:46.243Z,98446.40
2023-03-05T05:46:18.671Z,98448.00
2023-03-05T05:48:46.775Z,98447.20
2023-03-05T05:51:22.050Z,98446.20
2023-03-05T05:53:50.542Z,98437.60
2023-03-05T05:56:19.525Z,98433.40
2023-03-05T05:58:49.063Z,98433.80
2023-03-05T06:01:25.006Z,98432.80
2023-03-05T06:03:52.737Z,98437.40
2023-03-05T06:06:23.881Z,98429.40
2023-03-05T06:08:52.791Z,98434.60
2023-03-05T06:11:21.158Z,98429.20
2023-03-05T06:13:49.759Z,98433.00
2023-03-05T06:16:23.833Z,98421.80
2023-03-05T06:18:52.890Z,98429.60
2023-03-05T06:21:22.687Z,98425.60
2023-03-05T06:23:51.418Z,98422.40
2023-03-05T06:26:22.126Z,98416.00
2023-03-05T06:28:50.690Z,98416.80
2023-03-05T06:31:27.439Z,98413.80
2023-03-05T06:33:58.464Z,98408.00
2023-03-05T06:36:26.309Z,98407.60
2023-03-05T06:38:55.212Z,98409.60
2023-03-05T06:41:28.981Z,98402.20
2023-03-05T06:43:57.386Z,98401.40
2023-03-05T06:46:32.203Z,98398.80
2023-03-05T06:49:02.726Z,98393.60
2023-03-05T06:51:37.713Z,98402.40
2023-03-05T06:54:09.603Z,98397.40
2023-03-05T06:56:40.531Z,98394.60
2023-03-05T06:59:10.397Z,98399.80
2023-03-05T07:01:38.463Z,98400.60
2023-03-05T07:04:06.909Z,98398.00
2023-03-05T07:06:38.434Z,98394.00
2023-03-05T07:09:10.364Z,98390.80
2023-03-05T07:11:38.061Z,98393.60
2023-03-05T07:14:05.823Z,98394.00
2023-03-05T07:16:34.764Z,98388.80
2023-03-05T07:19:07.418Z,98393.20
2023-03-05T07:21:39.102Z,98388.40
2023-03-05T07:24:09.078Z,98392.40
2023-03-05T07:26:36.964Z,98395.20
2023-03-05T07:29:04.716Z,98387.60
2023-03-05T07:31:32.713Z,98384.40
2023-03-05T07:34:03.286Z,98385.20
2023-03-05T07:36:31.637Z,98382.60
2023-03-05T07:38:59.514Z,98379.60
2023-03-05T07:41:27.227Z,98382.00
2023-03-05T07:43:55.765Z,98380.20
2023-03-05T07:46:30.381Z,98371.60
2023-03-05T07:48:59.058Z,98366.40
2023-03-05T07:51:28.170Z,98367.20
2023-03-05T07:53:58.663Z,98361.80
2023-03-05T07:56:35.250Z,98362.80
2023-03-05T07:59:07.891Z,98360.60
2023-03-05T08:01:36.944Z,98359.20
2023-03-05T08:04:06.974Z,98351.40
2023-03-05T08:06:34.785Z,98348.60
2023-03-05T08:09:02.528Z,98341.00
2023-03-05T08:11:30.317Z,98347.20
2023-03-05T08:13:59.485Z,98341.80
2023-03-05T08:16:27.639Z,98341.80
2023-03-05T08:18:57.510Z,98342.60
2023-03-05T08:21:33.827Z,98335.80
2023-03-05T08:24:08.610Z,98330.20
2023-03-05T08:26:38.561Z,98329.00
2023-03-05T08:29:08.834Z,98325.00
2023-03-05T08:31:38.050Z,98325.80
2023-03-05T08:34:06.567Z,98331.60
2023-03-05T08:36:34.365Z,98327.80
2023-03-05T08:39:02.103Z,98322.20
2023-03-05T08:41:29.761Z,98323.80
2023-03-05T08:43:57.593Z,98322.20
2023-03-05T08:46:25.670Z,98316.60
2023-03-05T08:48:53.613Z,98318.40
2023-03-05T08:51:27.938Z,98321.60
2023-03-05T08:53:58.658Z,98318.80
2023-03-05T08:56:28.504Z,98325.80
2023-03-05T08:58:56.635Z,98330.20
2023-03-05T09:01:24.819Z,98321.00
2023-03-05T09:03:52.929Z,98330.60
2023-03-05T09:06:20.892Z,98332.80
2023-03-05T09:08:48.654Z,98329.60
2023-03-05T09:11:16.589Z,98331.60
2023-03-05T09:13:44.468Z,98330.60
2023-03-05T09:16:16.927Z,98335.60
2023-03-05T09:18:45.542Z,98333.20
2023-03-05T09:21:17.400Z,98336.40
2023-03-05T09:23:47.148Z,98329.80
2023-03-05T09:26:19.180Z,98332.80
2023-03-05T09:28:48.467Z,98334.80
2023-03-05T09:31:17.158Z,98332.60
2023-03-05T09:33:44.945Z,98329.80
2023-03-05T09:36:26.505Z,98327.60
2023-03-05T09:38:54.447Z,98320.00
2023-03-05T09:41:30.347Z,98323.20
2023-03-05T09:44:16.218Z,98321.60
2023-03-05T09:47:00.144Z,98318.40
2023-03-05T09:50:00.046Z,98324.80
2023-03-05T09:52:55.306Z,98323.80
2023-03-05T09:55:34.148Z,98321.20
2023-03-05T09:58:12.915Z,98322.20
2023-03-05T10:01:09.475Z,98320.60
2023-03-05T10:04:00.430Z,98320.60
2023-03-05T10:06:36.756Z,98310.20
2023-03-05T10:09:16.337Z,98310.00
2023-03-05T10:12:05.765Z,98305.40
2023-03-05T10:14:38.450Z,98305.60
2023-03-05T10:17:44.275Z,98300.20
2023-03-05T10:20:33.043Z,98297.60
2023-03-05T10:23:49.038Z,98293.20
2023-03-05T10:26:31.843Z,98291.20
2023-03-05T10:29:23.144Z,98287.80
2023-03-05T10:32:07.266Z,98281.80
2023-03-05T10:35:07.804Z,98277.40
2023-03-05T10:38:00.128Z,98272.80
2023-03-05T10:40:52.296Z,98272.00
2023-03-05T10:43:31.053Z,98273.20
2023-03-05T10:46:03.587Z,98274.60
2023-03-05T10:48:49.353Z,98267.20
2023-03-05T10:51:25.624Z,98270.40
2023-03-05T10:54:02.201Z,98268.40
2023-03-05T10:56:31.846Z,98269.80
2023-03-05T10:58:59.582Z,98264.00
2023-03-05T11:01:31.422Z,98260.80
2023-03-05T11:04:37.914Z,98262.20
2023-03-05T11:07:16.117Z,98259.40
2023-03-05T11:10:15.262Z,98259.60
2023-03-05T11:12:44.352Z,98255.00
2023-03-05T11:15:12.028Z,98251.00
2023-03-05T11:18:03.824Z,98248.60
2023-03-05T11:20:37.285Z,98239.20
2023-03-05T11:23:26.206Z,98239.60
2023-03-05T11:26:14.859Z,98234.80
2023-03-05T11:28:48.368Z,98232.60
2023-03-05T11:31:16.157Z,98235.00
2023-03-05T11:34:08.500Z,98230.00
2023-03-05T11:36:40.007Z,98218.40
2023-03-05T11:39:07.846Z,98227.20
2023-03-05T11:42:00.174Z,98225.00
2023-03-05T11:44:56.876Z,98227.40
2023-03-05T11:47:49.402Z,98220.60
2023-03-05T11:50:23.897Z,98223.40
2023-03-05T11:52:58.019Z,98216.60
2023-03-05T11:55:40.091Z,98212.80
2023-03-05T11:58:31.441Z,98211.00
2023-03-05T12:01:04.074Z,98199.60
2023-03-05T12:03:37.130Z,98194.20
2023-03-05T12:06:29.307Z,98189.20
2023-03-05T12:09:07.708Z,98199.60
2023-03-05T12:11:36.924Z,98199.80
2023-03-05T12:14:26.850Z,98202.40
2023-03-05T12:17:23.357Z,98201.40
2023-03-05T12:20:09.142Z,98194.20
2023-03-05T12:22:40.902Z,98191.80
2023-03-05T12:25:32.482Z,98192.60
2023-03-05T12:28:01.210Z,98195.80
2023-03-05T12:30:35.264Z,98193.80
2023-03-05T12:33:05.937Z,98195.00
2023-03-05T12:35:39.971Z,98194.60
2023-03-05T12:38:33.290Z,98188.80
2023-03-05T12:41:22.591Z,98183.60
2023-03-05T12:44:05.226Z,98177.60
2023-03-05T12:46:44.089Z,98181.60
2023-03-05T12:49:21.255Z,98179.80
2023-03-05T12:51:51.618Z,98179.60
2023-03-05T12:54:30.883Z,98180.00
2023-03-05T12:57:04.521Z,98174.20
2023-03-05T12:59:46.492Z,98169.80
2023-03-05T13:02:27.072Z,98168.40
2023-03-05T13:05:00.612Z,98170.20
2023-03-05T13:07:28.557Z,98162.60
2023-03-05T13:09:59.660Z,98161.40
2023-03-05T13:12:30.160Z,98162.40
2023-03-05T13:15:04.430Z,98162.00
2023-03-05T13:17:44.424Z,98164.20
2023-03-05T13:20:34.227Z,98165.00
2023-03-05T13:23:15.394Z,98168.00
2023-03-05T13:25:44.636Z,98168.40
2023-03-05T13:28:15.766Z,98174.20
2023-03-05T13:31:19.213Z,98171.80
2023-03-05T13:33:59.852Z,98178.40
2023-03-05T13:36:28.228Z,98178.00
2023-03-05T13:38:56.257Z,98176.40
2023-03-05T13:41:29.597Z,98182.40
2023-03-05T13:44:02.822Z,98183.60
2023-03-05T13:46:34.358Z,98179.00
2023-03-05T13:49:18.037Z,98181.80
2023-03-05T13:51:55.789Z,98176.60
2023-03-05T13:54:26.813Z,98175.40
2023-03-05T13:57:05.855Z,98175.40
2023-03-05T13:59:39.105Z,98172.20
2023-03-05T14:02:34.406Z,98170.20
2023-03-05T14:05:15.297Z,98165.40
2023-03-05T14:07:48.359Z,98161.00
2023-03-05T14:10:36.049Z,98163.80
2023-03-05T14:13:13.565Z,98160.60
2023-03-05T14:15:43.503Z,98155.80
2023-03-05T14:18:11.379Z,98152.60
2023-03-05T14:20:59.480Z,98152.40
2023-03-05T14:23:47.726Z,98143.80
2023-03-05T14:26:31.292Z,98140.00
2023-03-05T14:29:11.335Z,98141.80
2023-03-05T14:32:02.906Z,98134.00
2023-03-05T14:34:42.213Z,98129.80
2023-03-05T14:37:29.304Z,98135.00
2023-03-05T14:40:21.601Z,98127.80
2023-03-05T14:42:58.803Z,98126.60
2023-03-05T14:45:43.708Z,98126.60
2023-03-05T14:48:16.030Z,98134.20
2023-03-05T14:50:53.245Z,98135.40
2023-03-05T14:53:27.176Z,98131.20
2023-03-05T14:55:56.928Z,98127.40
2023-03-05T14:58:32.237Z,98122.60
2023-03-05T15:01:00.210Z,98121.40
2023-03-05T15:03:28.174Z,98124.80
2023-03-05T15:05:58.619Z,98128.20
2023-03-05T15:08:31.172Z,98135.80
2023-03-05T15:11:00.967Z,98146.60
2023-03-05T15:13:28.749Z,98151.60
2023-03-05T15:15:56.610Z,98151.60
2023-03-05T15:18:24.406Z,98151.40
2023-03-05T15:20:53.139Z,98145.20
2023-03-05T15:23:21.377Z,98148.20
2023-03-05T15:25:49.826Z,98141.00
2023-03-05T15:28:17.700Z,98141.20
2023-03-05T15:30:47.623Z,98136.20
2023-03-05T15:33:17.873Z,98140.60
2023-03-05T15:35:45.991Z,98134.60
2023-03-05T15:38:15.307Z,98142.00
2023-03-05T15:40:44.191Z,98138.60
2023-03-05T15:43:11.914Z,98143.40
2023-03-05T15:45:40.224Z,98147.60
2023-03-05T15:48:08.461Z,98151.00
2023-03-05T15:50:36.291Z,98148.80
2023-03-05T15:53:04.504Z,98153.40
2023-03-05T15:55:32.205Z,98157.00
2023-03-05T15:57:59.852Z,98154.00
2023-03-05T16:00:31.166Z,98159.20
2023-03-05T16:02:59.168Z,98162.00
2023-03-05T16:05:27.173Z,98157.80
2023-03-05T16:07:56.124Z,98162.40
2023-03-05T16:10:28.216Z,98159.00
2023-03-05T16:13:12.324Z,98161.60
2023-03-05T16:15:41.820Z,98156.60
2023-03-05T16:18:16.248Z,98155.60
2023-03-05T16:20:44.182Z,98158.40
2023-03-05T16:23:11.840Z,98158.20
2023-03-05T16:25:39.870Z,98148.40
2023-03-05T16:28:07.729Z,98136.40
2023-03-05T16:30:35.597Z,98134.80
2023-03-05T16:33:03.987Z,98132.60
2023-03-05T16:35:32.873Z,98131.80
2023-03-05T16:38:00.840Z,98142.60
2023-03-05T16:40:38.825Z,98143.00
2023-03-05T16:43:16.465Z,98141.60
2023-03-05T16:45:44.306Z,98148.00
2023-03-05T16:48:12.037Z,98152.00
2023-03-05T16:50:40.028Z,98153.00
2023-03-05T16:53:07.902Z,98156.00
2023-03-05T16:55:37.815Z,98148.80
2023-03-05T16:58:05.938Z,98146.80
2023-03-05T17:00:34.140Z,98147.00
2023-03-05T17:03:02.007Z,98148.60
2023-03-05T17:05:30.085Z,98155.60
2023-03-05T17:07:58.252Z,98152.80
2023-03-05T17:10:26.152Z,98150.00
2023-03-05T17:12:54.502Z,98153.60
2023-03-05T17:15:23.803Z,98158.80
2023-03-05T17:17:51.768Z,98156.60
2023-03-05T17:20:20.146Z,98161.00
2023-03-05T17:22:48.121Z,98159.00
2023-03-05T17:25:16.085Z,98162.60
2023-03-05T17:27:44.125Z,98157.40
2023-03-05T17:30:12.946Z,98162.60
2023-03-05T17:32:41.527Z,98159.00
2023-03-05T17:35:27.838Z,98155.60
2023-03-05T17:37:56.035Z,98157.20
2023-03-05T17:40:25.261Z,98157.20
2023-03-05T17:42:53.067Z,98156.40
2023-03-05T17:45:21.136Z,98154.00
2023-03-05T17:47:48.998Z,98157.20
2023-03-05T17:50:17.109Z,98152.00
2023-03-05T17:52:45.648Z,98157.00
2023-03-05T17:55:17.218Z,98152.20
2023-03-05T17:57:47.632Z,98159.00
2023-03-05T18:00:23.560Z,98151.80
2023-03-05T18:02:52.990Z,98154.20
2023-03-05T18:05:24.196Z,98152.00
2023-03-05T18:07:52.694Z,98152.60
2023-03-05T18:10:23.791Z,98148.80
2023-03-05T18:12:52.519Z,98148.60
2023-03-05T18:15:22.489Z,98160.60
2023-03-05T18:17:51.555Z,98154.80
2023-03-05T18:20:34.370Z,98155.00
2023-03-05T18:23:05.119Z,98151.00
2023-03-05T18:25:34.128Z,98148.60
2023-03-05T18:28:11.855Z,98149.80
2023-03-05T18:30:41.791Z,98144.00
2023-03-05T18:33:25.316Z,98145.40
2023-03-05T18:35:53.751Z,98157.80
2023-03-05T18:38:26.119Z,98156.00
2023-03-05T18:40:56.494Z,98154.40
2023-03-05T18:43:25.139Z,98148.20
2023-03-05T18:45:55.963Z,98148.80
2023-03-05T18:48:24.164Z,98150.80
2023-03-05T18:50:53.877Z,98146.00
2023-03-05T18:53:22.733Z,98150.00
2023-03-05T18:55:52.806Z,98157.60
2023-03-05T18:58:20.662Z,98157.20
2023-03-05T19:00:48.801Z,98151.40
2023-03-05T19:03:19.339Z,98148.00
2023-03-05T19:05:50.214Z,98148.00
2023-03-05T19:08:19.427Z,98152.40
2023-03-05T19:10:47.717Z,98153.00
2023-03-05T19:13:40.339Z,98149.20
2023-03-05T19:16:10.322Z,98143.40
2023-03-05T19:18:43.898Z,98141.00
2023-03-05T19:21:11.768Z,98145.00
2023-03-05T19:23:39.845Z,98151.00
2023-03-05T19:26:07.650Z,98144.80
2023-03-05T19:28:35.361Z,98147.00
2023-03-05T19:31:03.100Z,98136.00
2023-03-05T19:33:30.922Z,98138.60
2023-03-05T19:35:59.063Z,98139.40
2023-03-05T19:38:29.387Z,98140.20
2023-03-05T19:40:57.058Z,98128.20
2023-03-05T19:43:24.800Z,98129.00
2023-03-05T19:45:52.986Z,98118.40
2023-03-05T19:48:20.668Z,98120.20
2023-03-05T19:50:48.514Z,98129.20
2023-03-05T19:53:16.279Z,98129.20
2023-03-05T19:55:43.971Z,98126.00
2023-03-05T19:58:11.690Z,98124.20
2023-03-05T20:00:39.504Z,98118.60
2023-03-05T20:03:07.324Z,98114.80
2023-03-05T20:05:35.388Z,98111.80
2023-03-05T20:08:03.425Z,98106.00
2023-03-05T20:10:31.252Z,98098.60
2023-03-05T20:12:58.977Z,98101.00
2023-03-05T20:15:29.279Z,98095.60
2023-03-05T20:17:58.314Z,98097.60
2023-03-05T20:20:26.109Z,98096.60
2023-03-05T20:22:54.203Z,98101.00
2023-03-05T20:25:24.654Z,98102.60
2023-03-05T20:27:52.778Z,98094.60
2023-03-05T20:30:20.774Z,98099.40
2023-03-05T20:32:48.660Z,98099.40
2023-03-05T20:35:18.838Z,98097.20
2023-03-05T20:38:20.829Z,98096.00
2023-03-05T20:40:50.476Z,98086.60
2023-03-05T20:43:19.379Z,98088.60
2023-03-05T20:45:48.058Z,98083.40
2023-03-05T20:48:16.380Z,98081.00
2023-03-05T20:50:46.661Z,98084.40
2023-03-05T20:53:15.487Z,98079.80
2023-03-05T20:55:43.603Z,98079.80
2023-03-05T20:58:11.818Z,98078.00
2023-03-05T21:00:41.338Z,98080.60
2023-03-05T21:03:09.514Z,98082.40
2023-03-05T21:05:37.940Z,98074.80
2023-03-05T21:08:05.796Z,98072.60
2023-03-05T21:10:33.795Z,98070.00
2023-03-05T21:13:01.527Z,98067.00
2023-03-05T21:15:30.932Z,98069.60
2023-03-05T21:17:58.937Z,98064.20
2023-03-05T21:20:29.871Z,98061.60
2023-03-05T21:22:59.037Z,98063.40
2023-03-05T21:25:32.395Z,98061.40
2023-03-05T21:28:02.930Z,98067.00
2023-03-05T21:30:38.456Z,98064.40
2023-03-05T21:33:11.863Z,98062.20
2023-03-05T21:35:40.764Z,98064.40
2023-03-05T21:38:09.904Z,98061.80
2023-03-05T21:40:43.659Z,98065.60
2023-03-05T21:43:13.295Z,98063.20
2023-03-05T21:45:42.134Z,98062.20
2023-03-05T21:48:10.135Z,98061.40
2023-03-05T21:50:41.750Z,98064.40
2023-03-05T21:53:10.534Z,98056.40
2023-03-05T21:55:58.578Z,98058.40
2023-03-05T21:58:26.307Z,98061.40
2023-03-05T22:00:54.027Z,98064.00
2023-03-05T22:03:21.727Z,98069.60
2023-03-05T22:05:49.373Z,98064.60
2023-03-05T22:08:17.056Z,98065.60
2023-03-05T22:10:44.726Z,98064.40
2023-03-05T22:13:12.698Z,98066.60
2023-03-05T22:15:48.058Z,98065.80
2023-03-05T22:18:23.238Z,98065.20
2023-03-05T22:20:52.581Z,98060.00
2023-03-05T22:23:23.753Z,98058.60
2023-03-05T22:26:05.434Z,98056.20
2023-03-05T22:28:35.715Z,98064.00
2023-03-05T22:31:03.562Z,98063.00
2023-03-05T22:33:31.792Z,98060.80
2023-03-05T22:35:59.873Z,98064.60
2023-03-05T22:38:27.652Z,98059.20
2023-03-05T22:40:55.501Z,98066.20
2023-03-05T22:43:23.272Z,98058.20
2023-03-05T22:45:51.054Z,98055.80
2023-03-05T22:48:18.734Z,98051.80
2023-03-05T22:50:46.680Z,98055.00
2023-03-05T22:53:14.489Z,98053.00
2023-03-05T22:55:43.020Z,98046.00
2023-03-05T22:58:10.888Z,98045.80
2023-03-05T23:00:38.673Z,98043.20
2023-03-05T23:03:06.621Z,98045.60
2023-03-05T23:05:37.699Z,98049.20
2023-03-05T23:08:05.908Z,98046.40
2023-03-05T23:10:34.393Z,98046.60
2023-03-05T23:13:02.680Z,98048.20
2023-03-05T23:15:34.469Z,98044.60
2023-03-05T23:18:04.578Z,98041.00
2023-03-05T23:20:36.854Z,98035.40
2023-03-05T23:23:04.956Z,98034.00
2023-03-05T23:25:36.480Z,98032.40
2023-03-05T23:28:04.675Z,98041.40
2023-03-05T23:30:37.260Z,98045.00
2023-03-05T23:33:06.885Z,98043.60
2023-03-05T23:35:38.843Z,98038.20
2023-03-05T23:38:13.943Z,98035.80
2023-03-05T23:40:46.910Z,98034.60
2023-03-05T23:43:16.375Z,98036.80
2023-03-05T23:45:48.164Z,98037.00
2023-03-05T23:48:17.940Z,98035.80
2023-03-05T23:50:47.936Z,98037.00
2023-03-05T23:53:31.311Z,98035.40
2023-03-05T23:55:59.143Z,98033.80
2023-03-05T23:58:27.141Z,98034.80
